Weather at Fatmawati Soekarno Airport

Public forecast

Using degrees Celsius for public forecast. Weather courtesy of forecast.io.

Closest aviation weather report (METAR) to Fatmawati Soekarno Airport

Closest report is Sultan Mahmud Badaruddin II Airport, 152.8 nm (283.0 km) ENE.

2024/02/23 04:00 (retrieved 43 minutes ago)

WIPP 230400Z VRB03KT 9999 FEW010TCU SCT010 32/26 Q1012 TCU TO S NOSIG

Closest aviation forecast (TAF) to Fatmawati Soekarno Airport

Forecast is more than 12 hours old.

Closest forecast is Kertajati International Airport, 386.4 nm (715.7 km) ESE.

2024/02/22 12:58 (retrieved 16 hours ago)

TAF WICA 221100Z 2212/2312 27008KT 8000 SCT020 TEMPO 2213/2216 4000 TSRA FEW016CB BECMG 2217/2219 3000 BR